sensor_id;sensor_type;location;lat;lon;timestamp;temperature;humidity
418;DHT22;49;48.530;9.200;2023-12-20T00:01:07;13.70;16.20
418;DHT22;49;48.530;9.200;2023-12-20T00:03:34;14.00;15.00
418;DHT22;49;48.530;9.200;2023-12-20T00:06:01;14.00;13.80
418;DHT22;49;48.530;9.200;2023-12-20T00:08:29;13.80;13.20
418;DHT22;49;48.530;9.200;2023-12-20T00:10:59;13.80;13.70
418;DHT22;49;48.530;9.200;2023-12-20T00:13:26;14.10;13.90
418;DHT22;49;48.530;9.200;2023-12-20T00:15:52;14.00;13.80
418;DHT22;49;48.530;9.200;2023-12-20T00:18:20;13.90;13.20
418;DHT22;49;48.530;9.200;2023-12-20T00:20:47;13.90;12.70
418;DHT22;49;48.530;9.200;2023-12-20T00:23:14;13.60;14.60
418;DHT22;49;48.530;9.200;2023-12-20T00:25:41;13.50;13.50
418;DHT22;49;48.530;9.200;2023-12-20T00:28:09;13.20;14.60
418;DHT22;49;48.530;9.200;2023-12-20T00:30:36;13.30;15.20
418;DHT22;49;48.530;9.200;2023-12-20T00:33:06;13.00;16.10
418;DHT22;49;48.530;9.200;2023-12-20T00:35:33;13.00;16.10
418;DHT22;49;48.530;9.200;2023-12-20T00:38:00;13.10;15.40
418;DHT22;49;48.530;9.200;2023-12-20T00:40:29;13.00;15.40
418;DHT22;49;48.530;9.200;2023-12-20T00:42:56;12.80;16.50
418;DHT22;49;48.530;9.200;2023-12-20T00:45:24;12.90;16.40
418;DHT22;49;48.530;9.200;2023-12-20T00:47:51;12.90;16.60
418;DHT22;49;48.530;9.200;2023-12-20T00:50:18;12.80;16.70
418;DHT22;49;48.530;9.200;2023-12-20T00:52:47;12.80;16.60
418;DHT22;49;48.530;9.200;2023-12-20T00:55:14;13.00;17.90
418;DHT22;49;48.530;9.200;2023-12-20T00:57:41;12.80;18.10
418;DHT22;49;48.530;9.200;2023-12-20T01:00:09;12.80;17.00
418;DHT22;49;48.530;9.200;2023-12-20T01:02:38;12.80;16.60
418;DHT22;49;48.530;9.200;2023-12-20T01:05:05;12.80;17.50
418;DHT22;49;48.530;9.200;2023-12-20T01:07:34;12.90;17.40
418;DHT22;49;48.530;9.200;2023-12-20T01:10:01;13.00;16.90
418;DHT22;49;48.530;9.200;2023-12-20T01:12:28;12.60;17.40
418;DHT22;49;48.530;9.200;2023-12-20T01:14:55;12.60;18.90
418;DHT22;49;48.530;9.200;2023-12-20T01:17:24;12.50;18.60
418;DHT22;49;48.530;9.200;2023-12-20T01:19:55;12.60;19.20
418;DHT22;49;48.530;9.200;2023-12-20T01:22:22;12.70;18.80
418;DHT22;49;48.530;9.200;2023-12-20T01:24:49;12.70;19.70
418;DHT22;49;48.530;9.200;2023-12-20T01:27:16;13.00;19.10
418;DHT22;49;48.530;9.200;2023-12-20T01:29:43;13.10;17.30
418;DHT22;49;48.530;9.200;2023-12-20T01:32:11;13.20;17.40
418;DHT22;49;48.530;9.200;2023-12-20T01:34:38;13.00;17.50
418;DHT22;49;48.530;9.200;2023-12-20T01:37:08;12.80;18.10
418;DHT22;49;48.530;9.200;2023-12-20T01:39:36;12.40;19.30
418;DHT22;49;48.530;9.200;2023-12-20T01:42:03;12.50;20.80
418;DHT22;49;48.530;9.200;2023-12-20T01:44:34;12.50;20.20
418;DHT22;49;48.530;9.200;2023-12-20T01:47:01;12.70;20.60
418;DHT22;49;48.530;9.200;2023-12-20T01:49:28;12.90;20.00
418;DHT22;49;48.530;9.200;2023-12-20T01:51:56;12.80;20.60
418;DHT22;49;48.530;9.200;2023-12-20T01:54:25;12.80;20.90
418;DHT22;49;48.530;9.200;2023-12-20T01:56:52;12.70;21.50
418;DHT22;49;48.530;9.200;2023-12-20T01:59:20;12.90;21.50
418;DHT22;49;48.530;9.200;2023-12-20T02:01:47;12.50;22.40
418;DHT22;49;48.530;9.200;2023-12-20T02:04:18;12.30;23.90
418;DHT22;49;48.530;9.200;2023-12-20T02:06:46;12.10;24.40
418;DHT22;49;48.530;9.200;2023-12-20T02:09:16;12.00;25.70
418;DHT22;49;48.530;9.200;2023-12-20T02:11:44;12.10;25.60
418;DHT22;49;48.530;9.200;2023-12-20T02:14:11;12.10;26.40
418;DHT22;49;48.530;9.200;2023-12-20T02:16:39;12.10;26.30
418;DHT22;49;48.530;9.200;2023-12-20T02:19:10;12.20;25.50
418;DHT22;49;48.530;9.200;2023-12-20T02:21:41;11.90;27.60
418;DHT22;49;48.530;9.200;2023-12-20T02:24:08;11.90;27.90
418;DHT22;49;48.530;9.200;2023-12-20T02:26:35;12.10;27.50
418;DHT22;49;48.530;9.200;2023-12-20T02:29:02;12.10;26.80
418;DHT22;49;48.530;9.200;2023-12-20T02:31:31;11.80;28.80
418;DHT22;49;48.530;9.200;2023-12-20T02:33:58;11.70;29.80
418;DHT22;49;48.530;9.200;2023-12-20T02:36:25;11.80;29.60
418;DHT22;49;48.530;9.200;2023-12-20T02:38:54;11.70;30.70
418;DHT22;49;48.530;9.200;2023-12-20T02:41:20;12.00;28.80
418;DHT22;49;48.530;9.200;2023-12-20T02:43:49;12.10;28.70
418;DHT22;49;48.530;9.200;2023-12-20T02:46:17;12.20;27.80
418;DHT22;49;48.530;9.200;2023-12-20T02:48:44;12.50;26.60
418;DHT22;49;48.530;9.200;2023-12-20T02:51:12;12.30;26.40
418;DHT22;49;48.530;9.200;2023-12-20T02:53:39;12.20;27.30
418;DHT22;49;48.530;9.200;2023-12-20T02:56:10;12.10;27.60
418;DHT22;49;48.530;9.200;2023-12-20T02:58:37;12.10;27.70
418;DHT22;49;48.530;9.200;2023-12-20T03:01:04;12.00;28.40
418;DHT22;49;48.530;9.200;2023-12-20T03:03:31;12.10;28.00
418;DHT22;49;48.530;9.200;2023-12-20T03:05:59;12.30;26.60
418;DHT22;49;48.530;9.200;2023-12-20T03:08:26;12.40;26.40
418;DHT22;49;48.530;9.200;2023-12-20T03:10:53;12.10;27.50
418;DHT22;49;48.530;9.200;2023-12-20T03:13:21;12.10;27.60
418;DHT22;49;48.530;9.200;2023-12-20T03:15:48;12.20;27.50
418;DHT22;49;48.530;9.200;2023-12-20T03:18:15;12.40;27.30
418;DHT22;49;48.530;9.200;2023-12-20T03:20:43;12.00;28.60
418;DHT22;49;48.530;9.200;2023-12-20T03:23:10;11.90;29.80
418;DHT22;49;48.530;9.200;2023-12-20T03:25:37;12.10;28.80
418;DHT22;49;48.530;9.200;2023-12-20T03:28:05;12.20;27.70
418;DHT22;49;48.530;9.200;2023-12-20T03:30:33;12.10;28.20
418;DHT22;49;48.530;9.200;2023-12-20T03:33:00;12.10;28.80
418;DHT22;49;48.530;9.200;2023-12-20T03:35:27;11.70;30.50
418;DHT22;49;48.530;9.200;2023-12-20T03:37:54;11.60;32.20
418;DHT22;49;48.530;9.200;2023-12-20T03:40:22;11.90;30.20
418;DHT22;49;48.530;9.200;2023-12-20T03:42:49;12.00;29.70
418;DHT22;49;48.530;9.200;2023-12-20T03:45:16;11.90;29.90
418;DHT22;49;48.530;9.200;2023-12-20T03:47:44;12.20;28.80
418;DHT22;49;48.530;9.200;2023-12-20T03:50:11;12.10;28.80
418;DHT22;49;48.530;9.200;2023-12-20T03:52:38;12.00;28.90
418;DHT22;49;48.530;9.200;2023-12-20T03:55:05;12.10;28.50
418;DHT22;49;48.530;9.200;2023-12-20T03:57:32;12.20;28.70
418;DHT22;49;48.530;9.200;2023-12-20T03:59:59;12.20;28.70
418;DHT22;49;48.530;9.200;2023-12-20T04:02:26;12.20;28.60
418;DHT22;49;48.530;9.200;2023-12-20T04:04:55;12.30;28.20
418;DHT22;49;48.530;9.200;2023-12-20T04:07:22;12.20;29.00
418;DHT22;49;48.530;9.200;2023-12-20T04:09:51;12.20;28.60
418;DHT22;49;48.530;9.200;2023-12-20T04:12:17;11.80;30.30
418;DHT22;49;48.530;9.200;2023-12-20T04:14:46;11.70;31.80
418;DHT22;49;48.530;9.200;2023-12-20T04:17:14;11.70;31.80
418;DHT22;49;48.530;9.200;2023-12-20T04:19:42;12.10;30.10
418;DHT22;49;48.530;9.200;2023-12-20T04:22:10;12.10;29.60
418;DHT22;49;48.530;9.200;2023-12-20T04:24:37;11.50;34.00
418;DHT22;49;48.530;9.200;2023-12-20T04:27:04;11.20;37.50
418;DHT22;49;48.530;9.200;2023-12-20T04:29:32;11.10;39.30
418;DHT22;49;48.530;9.200;2023-12-20T04:31:59;11.10;39.20
418;DHT22;49;48.530;9.200;2023-12-20T04:34:26;11.00;42.30
418;DHT22;49;48.530;9.200;2023-12-20T04:36:53;10.80;44.10
418;DHT22;49;48.530;9.200;2023-12-20T04:39:21;10.80;46.30
418;DHT22;49;48.530;9.200;2023-12-20T04:41:48;10.60;49.90
418;DHT22;49;48.530;9.200;2023-12-20T04:44:15;11.00;46.10
418;DHT22;49;48.530;9.200;2023-12-20T04:46:42;10.80;45.30
418;DHT22;49;48.530;9.200;2023-12-20T04:49:09;10.60;51.40
418;DHT22;49;48.530;9.200;2023-12-20T04:51:36;10.80;50.30
418;DHT22;49;48.530;9.200;2023-12-20T04:54:03;10.70;50.80
418;DHT22;49;48.530;9.200;2023-12-20T04:56:32;10.60;55.40
418;DHT22;49;48.530;9.200;2023-12-20T04:58:58;10.90;49.90
418;DHT22;49;48.530;9.200;2023-12-20T05:01:25;11.10;45.50
418;DHT22;49;48.530;9.200;2023-12-20T05:03:52;10.90;47.70
418;DHT22;49;48.530;9.200;2023-12-20T05:06:19;10.80;51.00
418;DHT22;49;48.530;9.200;2023-12-20T05:08:46;10.80;49.20
418;DHT22;49;48.530;9.200;2023-12-20T05:11:13;10.70;47.80
418;DHT22;49;48.530;9.200;2023-12-20T05:13:42;10.70;46.20
418;DHT22;49;48.530;9.200;2023-12-20T05:16:09;10.40;50.20
418;DHT22;49;48.530;9.200;2023-12-20T05:18:36;10.50;53.00
418;DHT22;49;48.530;9.200;2023-12-20T05:21:03;10.20;56.50
418;DHT22;49;48.530;9.200;2023-12-20T05:23:30;10.30;55.70
418;DHT22;49;48.530;9.200;2023-12-20T05:25:57;10.50;53.20
418;DHT22;49;48.530;9.200;2023-12-20T05:28:24;10.70;48.10
418;DHT22;49;48.530;9.200;2023-12-20T05:30:53;10.70;49.60
418;DHT22;49;48.530;9.200;2023-12-20T05:33:20;10.80;46.90
418;DHT22;49;48.530;9.200;2023-12-20T05:35:47;10.80;50.30
418;DHT22;49;48.530;9.200;2023-12-20T05:38:14;10.80;46.00
418;DHT22;49;48.530;9.200;2023-12-20T05:40:41;11.00;48.20
418;DHT22;49;48.530;9.200;2023-12-20T05:43:07;10.80;47.00
418;DHT22;49;48.530;9.200;2023-12-20T05:45:34;10.80;50.30
418;DHT22;49;48.530;9.200;2023-12-20T05:48:03;10.80;47.70
418;DHT22;49;48.530;9.200;2023-12-20T05:50:30;10.80;48.90
418;DHT22;49;48.530;9.200;2023-12-20T05:52:57;10.70;49.00
418;DHT22;49;48.530;9.200;2023-12-20T05:55:24;10.50;51.80
418;DHT22;49;48.530;9.200;2023-12-20T05:57:51;10.40;57.80
418;DHT22;49;48.530;9.200;2023-12-20T06:00:18;10.30;54.80
418;DHT22;49;48.530;9.200;2023-12-20T06:02:45;10.20;59.50
418;DHT22;49;48.530;9.200;2023-12-20T06:05:13;10.60;52.00
418;DHT22;49;48.530;9.200;2023-12-20T06:07:40;10.10;57.80
418;DHT22;49;48.530;9.200;2023-12-20T06:10:08;10.00;63.10
418;DHT22;49;48.530;9.200;2023-12-20T06:12:35;10.10;61.80
418;DHT22;49;48.530;9.200;2023-12-20T06:15:02;10.10;61.10
418;DHT22;49;48.530;9.200;2023-12-20T06:17:29;10.30;59.30
418;DHT22;49;48.530;9.200;2023-12-20T06:19:57;10.50;55.60
418;DHT22;49;48.530;9.200;2023-12-20T06:22:25;10.30;58.30
418;DHT22;49;48.530;9.200;2023-12-20T06:24:52;10.50;56.20
418;DHT22;49;48.530;9.200;2023-12-20T06:27:19;10.70;52.00
418;DHT22;49;48.530;9.200;2023-12-20T06:29:45;10.80;50.60
418;DHT22;49;48.530;9.200;2023-12-20T06:32:12;11.10;52.90
418;DHT22;49;48.530;9.200;2023-12-20T06:34:39;11.40;41.90
418;DHT22;49;48.530;9.200;2023-12-20T06:37:06;11.20;43.70
418;DHT22;49;48.530;9.200;2023-12-20T06:39:34;11.20;44.40
418;DHT22;49;48.530;9.200;2023-12-20T06:42:01;11.60;43.50
418;DHT22;49;48.530;9.200;2023-12-20T06:44:28;11.80;35.90
418;DHT22;49;48.530;9.200;2023-12-20T06:46:55;11.70;37.00
418;DHT22;49;48.530;9.200;2023-12-20T06:49:22;11.80;37.10
418;DHT22;49;48.530;9.200;2023-12-20T06:51:49;12.00;35.00
418;DHT22;49;48.530;9.200;2023-12-20T06:54:15;11.80;37.50
418;DHT22;49;48.530;9.200;2023-12-20T06:56:44;12.10;35.40
418;DHT22;49;48.530;9.200;2023-12-20T06:59:11;12.20;33.20
418;DHT22;49;48.530;9.200;2023-12-20T07:01:37;12.30;30.20
418;DHT22;49;48.530;9.200;2023-12-20T07:04:04;12.30;30.30
418;DHT22;49;48.530;9.200;2023-12-20T07:06:31;12.10;31.00
418;DHT22;49;48.530;9.200;2023-12-20T07:08:58;12.10;31.60
418;DHT22;49;48.530;9.200;2023-12-20T07:11:25;12.20;32.30
418;DHT22;49;48.530;9.200;2023-12-20T07:13:53;11.90;32.50
418;DHT22;49;48.530;9.200;2023-12-20T07:16:20;11.80;31.80
418;DHT22;49;48.530;9.200;2023-12-20T07:18:46;11.90;33.00
418;DHT22;49;48.530;9.200;2023-12-20T07:21:13;11.60;32.70
418;DHT22;49;48.530;9.200;2023-12-20T07:23:41;11.50;32.90
418;DHT22;49;48.530;9.200;2023-12-20T07:26:08;11.30;34.40
418;DHT22;49;48.530;9.200;2023-12-20T07:28:35;11.40;39.20
418;DHT22;49;48.530;9.200;2023-12-20T07:31:03;11.20;38.50
418;DHT22;49;48.530;9.200;2023-12-20T07:33:30;11.00;41.30
418;DHT22;49;48.530;9.200;2023-12-20T07:35:57;11.30;42.30
418;DHT22;49;48.530;9.200;2023-12-20T07:38:24;11.40;35.10
418;DHT22;49;48.530;9.200;2023-12-20T07:40:51;11.50;35.90
418;DHT22;49;48.530;9.200;2023-12-20T07:43:18;11.90;35.80
418;DHT22;49;48.530;9.200;2023-12-20T07:45:44;12.20;31.60
418;DHT22;49;48.530;9.200;2023-12-20T07:48:13;12.60;29.90
418;DHT22;49;48.530;9.200;2023-12-20T07:50:39;12.60;28.70
418;DHT22;49;48.530;9.200;2023-12-20T07:53:07;12.30;28.20
418;DHT22;49;48.530;9.200;2023-12-20T07:55:34;12.00;30.00
418;DHT22;49;48.530;9.200;2023-12-20T07:58:01;12.20;30.10
418;DHT22;49;48.530;9.200;2023-12-20T08:00:28;11.90;30.00
418;DHT22;49;48.530;9.200;2023-12-20T08:02:54;11.60;32.30
418;DHT22;49;48.530;9.200;2023-12-20T08:05:23;11.40;34.50
418;DHT22;49;48.530;9.200;2023-12-20T08:07:49;11.40;36.00
418;DHT22;49;48.530;9.200;2023-12-20T08:10:16;11.80;33.30
418;DHT22;49;48.530;9.200;2023-12-20T08:12:44;11.60;33.60
418;DHT22;49;48.530;9.200;2023-12-20T08:15:11;11.90;34.90
418;DHT22;49;48.530;9.200;2023-12-20T08:17:38;11.90;33.90
418;DHT22;49;48.530;9.200;2023-12-20T08:20:06;12.10;31.70
418;DHT22;49;48.530;9.200;2023-12-20T08:22:34;11.80;33.10
418;DHT22;49;48.530;9.200;2023-12-20T08:25:01;11.60;35.30
418;DHT22;49;48.530;9.200;2023-12-20T08:27:28;11.00;40.30
418;DHT22;49;48.530;9.200;2023-12-20T08:29:56;10.90;46.20
418;DHT22;49;48.530;9.200;2023-12-20T08:32:25;11.50;42.00
418;DHT22;49;48.530;9.200;2023-12-20T08:34:52;11.60;39.80
418;DHT22;49;48.530;9.200;2023-12-20T08:37:19;11.70;38.60
418;DHT22;49;48.530;9.200;2023-12-20T08:39:47;11.80;37.10
418;DHT22;49;48.530;9.200;2023-12-20T08:42:13;11.80;37.80
418;DHT22;49;48.530;9.200;2023-12-20T08:44:40;12.10;35.50
418;DHT22;49;48.530;9.200;2023-12-20T08:47:07;12.30;32.20
418;DHT22;49;48.530;9.200;2023-12-20T08:49:38;12.20;33.30
418;DHT22;49;48.530;9.200;2023-12-20T08:52:05;12.10;35.00
418;DHT22;49;48.530;9.200;2023-12-20T08:54:32;12.60;32.10
418;DHT22;49;48.530;9.200;2023-12-20T08:57:00;12.80;30.10
418;DHT22;49;48.530;9.200;2023-12-20T08:59:27;12.80;28.90
418;DHT22;49;48.530;9.200;2023-12-20T09:01:54;13.10;27.70
418;DHT22;49;48.530;9.200;2023-12-20T09:04:21;13.10;27.50
418;DHT22;49;48.530;9.200;2023-12-20T09:06:48;13.30;26.60
418;DHT22;49;48.530;9.200;2023-12-20T09:09:15;13.30;26.30
418;DHT22;49;48.530;9.200;2023-12-20T09:11:42;13.30;26.50
418;DHT22;49;48.530;9.200;2023-12-20T09:14:13;13.50;26.50
418;DHT22;49;48.530;9.200;2023-12-20T09:16:40;13.30;25.20
418;DHT22;49;48.530;9.200;2023-12-20T09:19:06;13.00;26.90
418;DHT22;49;48.530;9.200;2023-12-20T09:21:33;12.80;27.60
418;DHT22;49;48.530;9.200;2023-12-20T09:24:01;12.40;29.40
418;DHT22;49;48.530;9.200;2023-12-20T09:26:28;11.90;31.10
418;DHT22;49;48.530;9.200;2023-12-20T09:28:55;11.70;32.40
418;DHT22;49;48.530;9.200;2023-12-20T09:31:23;11.80;32.10
418;DHT22;49;48.530;9.200;2023-12-20T09:33:50;11.80;32.80
418;DHT22;49;48.530;9.200;2023-12-20T09:36:17;11.60;30.00
418;DHT22;49;48.530;9.200;2023-12-20T09:38:44;11.90;29.20
418;DHT22;49;48.530;9.200;2023-12-20T09:41:11;11.90;30.00
418;DHT22;49;48.530;9.200;2023-12-20T09:43:38;12.00;27.40
418;DHT22;49;48.530;9.200;2023-12-20T09:46:06;11.80;27.10
418;DHT22;49;48.530;9.200;2023-12-20T09:48:36;11.80;27.80
418;DHT22;49;48.530;9.200;2023-12-20T09:51:04;11.80;25.40
418;DHT22;49;48.530;9.200;2023-12-20T09:53:32;11.80;24.70
418;DHT22;49;48.530;9.200;2023-12-20T09:56:00;12.20;24.60
418;DHT22;49;48.530;9.200;2023-12-20T09:58:29;12.10;27.30
418;DHT22;49;48.530;9.200;2023-12-20T10:00:56;11.90;23.10
418;DHT22;49;48.530;9.200;2023-12-20T10:03:25;11.60;24.00
418;DHT22;49;48.530;9.200;2023-12-20T10:05:56;11.40;25.50
418;DHT22;49;48.530;9.200;2023-12-20T10:08:24;11.40;24.60
418;DHT22;49;48.530;9.200;2023-12-20T10:10:51;11.30;26.30
418;DHT22;49;48.530;9.200;2023-12-20T10:13:18;11.20;23.80
418;DHT22;49;48.530;9.200;2023-12-20T10:15:45;11.30;23.80
418;DHT22;49;48.530;9.200;2023-12-20T10:18:13;11.40;23.90
418;DHT22;49;48.530;9.200;2023-12-20T10:20:41;11.30;22.10
418;DHT22;49;48.530;9.200;2023-12-20T10:23:11;11.20;27.20
418;DHT22;49;48.530;9.200;2023-12-20T10:25:39;11.50;24.10
418;DHT22;49;48.530;9.200;2023-12-20T10:28:11;11.40;23.90
418;DHT22;49;48.530;9.200;2023-12-20T10:30:39;11.40;25.50
418;DHT22;49;48.530;9.200;2023-12-20T10:33:06;11.50;24.00
418;DHT22;49;48.530;9.200;2023-12-20T10:35:34;11.60;24.00
418;DHT22;49;48.530;9.200;2023-12-20T10:38:03;11.40;22.70
418;DHT22;49;48.530;9.200;2023-12-20T10:40:34;11.30;23.80
418;DHT22;49;48.530;9.200;2023-12-20T10:43:03;11.50;22.20
418;DHT22;49;48.530;9.200;2023-12-20T10:45:30;11.30;24.00
418;DHT22;49;48.530;9.200;2023-12-20T10:47:58;11.50;22.40
418;DHT22;49;48.530;9.200;2023-12-20T10:50:27;11.80;21.60
418;DHT22;49;48.530;9.200;2023-12-20T10:52:55;11.60;18.90
418;DHT22;49;48.530;9.200;2023-12-20T10:55:22;11.40;21.20
418;DHT22;49;48.530;9.200;2023-12-20T10:57:51;11.70;22.20
418;DHT22;49;48.530;9.200;2023-12-20T11:00:18;11.70;18.20
418;DHT22;49;48.530;9.200;2023-12-20T11:02:45;11.50;20.10
418;DHT22;49;48.530;9.200;2023-12-20T11:05:20;11.90;22.30
418;DHT22;49;48.530;9.200;2023-12-20T11:07:52;11.80;18.90
418;DHT22;49;48.530;9.200;2023-12-20T11:10:21;11.80;19.90
418;DHT22;49;48.530;9.200;2023-12-20T11:12:53;12.10;23.50
418;DHT22;49;48.530;9.200;2023-12-20T11:15:21;12.00;20.40
418;DHT22;49;48.530;9.200;2023-12-20T11:17:55;12.00;19.20
418;DHT22;49;48.530;9.200;2023-12-20T11:20:24;12.40;17.20
418;DHT22;49;48.530;9.200;2023-12-20T11:23:02;12.30;20.40
418;DHT22;49;48.530;9.200;2023-12-20T11:25:29;12.30;19.80
418;DHT22;49;48.530;9.200;2023-12-20T11:28:10;12.10;18.80
418;DHT22;49;48.530;9.200;2023-12-20T11:30:47;12.10;16.20
418;DHT22;49;48.530;9.200;2023-12-20T11:33:14;12.10;17.70
418;DHT22;49;48.530;9.200;2023-12-20T11:35:42;12.20;17.90
418;DHT22;49;48.530;9.200;2023-12-20T11:38:09;11.40;18.00
418;DHT22;49;48.530;9.200;2023-12-20T11:40:36;11.10;19.20
418;DHT22;49;48.530;9.200;2023-12-20T11:43:04;11.00;17.70
418;DHT22;49;48.530;9.200;2023-12-20T11:45:33;11.40;19.50
418;DHT22;49;48.530;9.200;2023-12-20T11:48:02;11.50;15.40
418;DHT22;49;48.530;9.200;2023-12-20T11:50:29;11.20;15.40
418;DHT22;49;48.530;9.200;2023-12-20T11:52:56;11.20;17.60
418;DHT22;49;48.530;9.200;2023-12-20T11:55:24;11.30;19.20
418;DHT22;49;48.530;9.200;2023-12-20T11:57:51;11.10;17.40
418;DHT22;49;48.530;9.200;2023-12-20T12:00:18;11.20;17.60
418;DHT22;49;48.530;9.200;2023-12-20T12:02:57;11.00;16.90
418;DHT22;49;48.530;9.200;2023-12-20T12:05:24;11.00;17.20
418;DHT22;49;48.530;9.200;2023-12-20T12:07:51;10.70;16.10
418;DHT22;49;48.530;9.200;2023-12-20T12:10:18;10.80;18.30
418;DHT22;49;48.530;9.200;2023-12-20T12:12:46;10.40;16.70
418;DHT22;49;48.530;9.200;2023-12-20T12:15:14;10.80;17.60
418;DHT22;49;48.530;9.200;2023-12-20T12:17:41;11.10;18.70
418;DHT22;49;48.530;9.200;2023-12-20T12:20:10;11.20;18.50
418;DHT22;49;48.530;9.200;2023-12-20T12:22:38;11.50;18.10
418;DHT22;49;48.530;9.200;2023-12-20T12:25:12;11.50;18.10
418;DHT22;49;48.530;9.200;2023-12-20T12:27:43;11.80;15.00
418;DHT22;49;48.530;9.200;2023-12-20T12:30:10;11.80;13.20
418;DHT22;49;48.530;9.200;2023-12-20T12:32:39;11.70;13.50
418;DHT22;49;48.530;9.200;2023-12-20T12:35:07;11.50;12.90
418;DHT22;49;48.530;9.200;2023-12-20T12:37:38;11.50;17.10
418;DHT22;49;48.530;9.200;2023-12-20T12:40:06;11.60;15.30
418;DHT22;49;48.530;9.200;2023-12-20T12:42:33;11.50;15.30
418;DHT22;49;48.530;9.200;2023-12-20T12:45:00;11.40;15.20
418;DHT22;49;48.530;9.200;2023-12-20T12:47:27;11.60;17.40
418;DHT22;49;48.530;9.200;2023-12-20T12:49:54;11.60;14.60
418;DHT22;49;48.530;9.200;2023-12-20T12:52:20;11.60;14.20
418;DHT22;49;48.530;9.200;2023-12-20T12:54:48;11.70;13.40
418;DHT22;49;48.530;9.200;2023-12-20T12:57:15;11.40;15.30
418;DHT22;49;48.530;9.200;2023-12-20T12:59:43;11.20;21.20
418;DHT22;49;48.530;9.200;2023-12-20T13:02:11;11.20;19.00
418;DHT22;49;48.530;9.200;2023-12-20T13:04:51;11.30;15.50
418;DHT22;49;48.530;9.200;2023-12-20T13:07:19;11.00;16.40
418;DHT22;49;48.530;9.200;2023-12-20T13:09:47;10.60;16.10
418;DHT22;49;48.530;9.200;2023-12-20T13:12:14;11.10;17.80
418;DHT22;49;48.530;9.200;2023-12-20T13:14:41;11.10;16.30
418;DHT22;49;48.530;9.200;2023-12-20T13:17:08;10.90;14.70
418;DHT22;49;48.530;9.200;2023-12-20T13:19:35;10.80;18.20
418;DHT22;49;48.530;9.200;2023-12-20T13:22:01;10.50;14.90
418;DHT22;49;48.530;9.200;2023-12-20T13:24:29;10.50;15.70
418;DHT22;49;48.530;9.200;2023-12-20T13:26:57;10.60;17.30
418;DHT22;49;48.530;9.200;2023-12-20T13:29:24;10.80;15.70
418;DHT22;49;48.530;9.200;2023-12-20T13:31:52;11.10;14.20
418;DHT22;49;48.530;9.200;2023-12-20T13:34:19;11.10;14.50
418;DHT22;49;48.530;9.200;2023-12-20T13:36:46;11.30;13.90
418;DHT22;49;48.530;9.200;2023-12-20T13:39:15;11.00;15.80
418;DHT22;49;48.530;9.200;2023-12-20T13:41:43;11.10;20.80
418;DHT22;49;48.530;9.200;2023-12-20T13:44:12;11.40;14.00
418;DHT22;49;48.530;9.200;2023-12-20T13:46:40;11.40;12.00
418;DHT22;49;48.530;9.200;2023-12-20T13:49:07;11.60;13.10
418;DHT22;49;48.530;9.200;2023-12-20T13:51:34;11.70;14.50
418;DHT22;49;48.530;9.200;2023-12-20T13:54:01;11.20;14.10
418;DHT22;49;48.530;9.200;2023-12-20T13:56:28;11.10;13.10
418;DHT22;49;48.530;9.200;2023-12-20T13:58:55;11.20;14.80
418;DHT22;49;48.530;9.200;2023-12-20T14:01:24;10.80;13.60
418;DHT22;49;48.530;9.200;2023-12-20T14:03:52;11.10;15.10
418;DHT22;49;48.530;9.200;2023-12-20T14:06:19;11.20;15.80
418;DHT22;49;48.530;9.200;2023-12-20T14:08:45;11.40;13.10
418;DHT22;49;48.530;9.200;2023-12-20T14:11:13;11.10;13.80
418;DHT22;49;48.530;9.200;2023-12-20T14:13:41;10.60;14.80
418;DHT22;49;48.530;9.200;2023-12-20T14:16:08;10.90;16.00
418;DHT22;49;48.530;9.200;2023-12-20T14:18:37;11.00;14.50
418;DHT22;49;48.530;9.200;2023-12-20T14:21:05;11.30;15.50
418;DHT22;49;48.530;9.200;2023-12-20T14:23:33;10.90;14.40
418;DHT22;49;48.530;9.200;2023-12-20T14:26:02;11.00;14.80
418;DHT22;49;48.530;9.200;2023-12-20T14:28:29;10.70;17.10
418;DHT22;49;48.530;9.200;2023-12-20T14:30:56;10.80;15.80
418;DHT22;49;48.530;9.200;2023-12-20T14:33:23;10.90;17.80
418;DHT22;49;48.530;9.200;2023-12-20T14:35:52;11.50;18.10
418;DHT22;49;48.530;9.200;2023-12-20T14:38:20;11.40;14.00
418;DHT22;49;48.530;9.200;2023-12-20T14:40:47;11.40;15.00
418;DHT22;49;48.530;9.200;2023-12-20T14:43:15;11.20;13.20
418;DHT22;49;48.530;9.200;2023-12-20T14:45:43;11.00;14.80
418;DHT22;49;48.530;9.200;2023-12-20T14:48:10;11.00;15.70
418;DHT22;49;48.530;9.200;2023-12-20T14:50:37;11.40;15.30
418;DHT22;49;48.530;9.200;2023-12-20T14:53:07;11.20;17.90
418;DHT22;49;48.530;9.200;2023-12-20T14:55:35;11.00;16.40
418;DHT22;49;48.530;9.200;2023-12-20T14:58:03;11.10;17.80
418;DHT22;49;48.530;9.200;2023-12-20T15:00:30;11.20;16.30
418;DHT22;49;48.530;9.200;2023-12-20T15:02:59;11.50;20.50
418;DHT22;49;48.530;9.200;2023-12-20T15:05:40;11.20;15.60
418;DHT22;49;48.530;9.200;2023-12-20T15:08:10;11.00;21.20
418;DHT22;49;48.530;9.200;2023-12-20T15:10:37;10.40;18.60
418;DHT22;49;48.530;9.200;2023-12-20T15:13:04;10.60;22.10
418;DHT22;49;48.530;9.200;2023-12-20T15:15:31;10.70;22.00
418;DHT22;49;48.530;9.200;2023-12-20T15:17:59;11.20;24.90
418;DHT22;49;48.530;9.200;2023-12-20T15:20:26;11.50;18.30
418;DHT22;49;48.530;9.200;2023-12-20T15:22:53;11.70;18.70
418;DHT22;49;48.530;9.200;2023-12-20T15:25:22;11.80;15.00
418;DHT22;49;48.530;9.200;2023-12-20T15:27:49;11.60;17.20
418;DHT22;49;48.530;9.200;2023-12-20T15:30:18;11.70;20.30
418;DHT22;49;48.530;9.200;2023-12-20T15:32:45;11.80;16.80
418;DHT22;49;48.530;9.200;2023-12-20T15:35:14;11.50;18.80
418;DHT22;49;48.530;9.200;2023-12-20T15:37:41;11.40;21.90
418;DHT22;49;48.530;9.200;2023-12-20T15:40:09;11.50;22.00
418;DHT22;49;48.530;9.200;2023-12-20T15:42:38;11.30;16.50
418;DHT22;49;48.530;9.200;2023-12-20T15:45:06;11.30;17.00
418;DHT22;49;48.530;9.200;2023-12-20T15:47:34;11.20;20.30
418;DHT22;49;48.530;9.200;2023-12-20T15:50:02;11.00;17.70
418;DHT22;49;48.530;9.200;2023-12-20T15:52:29;10.80;24.00
418;DHT22;49;48.530;9.200;2023-12-20T15:54:56;10.30;21.40
418;DHT22;49;48.530;9.200;2023-12-20T15:57:23;10.50;20.70
418;DHT22;49;48.530;9.200;2023-12-20T15:59:51;11.20;21.50
418;DHT22;49;48.530;9.200;2023-12-20T16:02:18;11.30;22.20
418;DHT22;49;48.530;9.200;2023-12-20T16:04:46;10.70;18.40
418;DHT22;49;48.530;9.200;2023-12-20T16:07:13;10.60;19.20
418;DHT22;49;48.530;9.200;2023-12-20T16:09:40;10.50;23.80
418;DHT22;49;48.530;9.200;2023-12-20T16:12:07;10.50;22.10
418;DHT22;49;48.530;9.200;2023-12-20T16:14:35;10.70;23.40
418;DHT22;49;48.530;9.200;2023-12-20T16:17:05;10.40;18.60
418;DHT22;49;48.530;9.200;2023-12-20T16:19:32;10.40;23.10
418;DHT22;49;48.530;9.200;2023-12-20T16:21:58;9.90;26.10
418;DHT22;49;48.530;9.200;2023-12-20T16:24:25;10.40;25.60
418;DHT22;49;48.530;9.200;2023-12-20T16:26:52;10.80;27.10
418;DHT22;49;48.530;9.200;2023-12-20T16:29:19;10.10;20.00
418;DHT22;49;48.530;9.200;2023-12-20T16:31:46;10.10;21.30
418;DHT22;49;48.530;9.200;2023-12-20T16:34:14;10.30;29.80
418;DHT22;49;48.530;9.200;2023-12-20T16:36:51;10.50;23.30
418;DHT22;49;48.530;9.200;2023-12-20T16:39:19;10.60;28.20
418;DHT22;49;48.530;9.200;2023-12-20T16:41:46;10.40;21.70
418;DHT22;49;48.530;9.200;2023-12-20T16:44:13;9.60;23.40
418;DHT22;49;48.530;9.200;2023-12-20T16:46:40;10.00;26.40
418;DHT22;49;48.530;9.200;2023-12-20T16:49:07;10.50;28.20
418;DHT22;49;48.530;9.200;2023-12-20T16:51:36;10.00;20.70
418;DHT22;49;48.530;9.200;2023-12-20T16:54:03;9.90;23.40